createdAt,value
2019-02-14T00:00:40.470Z,99.90
2019-02-14T00:03:06.977Z,99.90
2019-02-14T00:05:33.393Z,99.90
2019-02-14T00:07:59.869Z,99.90
2019-02-14T00:10:26.166Z,99.90
2019-02-14T00:12:52.564Z,99.90
2019-02-14T00:15:18.971Z,99.90
2019-02-14T00:17:45.631Z,99.90
2019-02-14T00:20:12.146Z,99.90
2019-02-14T00:22:38.570Z,99.90
2019-02-14T00:25:05.766Z,99.90
2019-02-14T00:27:32.300Z,99.90
2019-02-14T00:29:58.674Z,99.90
2019-02-14T00:32:25.333Z,99.90
2019-02-14T00:34:51.800Z,99.90
2019-02-14T00:37:18.182Z,99.90
2019-02-14T00:39:44.466Z,99.90
2019-02-14T00:42:10.845Z,99.90
2019-02-14T00:44:37.273Z,99.90
2019-02-14T00:47:03.753Z,99.90
2019-02-14T00:49:30.170Z,99.90
2019-02-14T00:51:56.460Z,99.90
2019-02-14T00:54:23.112Z,99.90
2019-02-14T00:56:49.604Z,99.90
2019-02-14T00:59:15.896Z,99.90
2019-02-14T01:01:42.390Z,99.90
2019-02-14T01:04:09.022Z,99.90
2019-02-14T01:06:35.520Z,99.90
2019-02-14T01:09:02.185Z,99.90
2019-02-14T01:11:28.586Z,99.90
2019-02-14T01:13:55.014Z,99.90
2019-02-14T01:16:21.516Z,99.90
2019-02-14T01:18:47.901Z,99.90
2019-02-14T01:21:14.342Z,99.90
2019-02-14T01:23:40.618Z,99.90
2019-02-14T01:26:06.978Z,99.90
2019-02-14T01:28:33.299Z,99.90
2019-02-14T01:30:59.720Z,99.90
2019-02-14T01:33:26.258Z,99.90
2019-02-14T01:35:52.784Z,99.90
2019-02-14T01:38:19.171Z,99.90
2019-02-14T01:40:45.609Z,99.90
2019-02-14T01:43:11.889Z,99.90
2019-02-14T01:45:38.265Z,99.90
2019-02-14T01:48:04.685Z,99.90
2019-02-14T01:50:31.252Z,99.90
2019-02-14T01:52:57.632Z,99.90
2019-02-14T01:55:24.052Z,99.90
2019-02-14T01:57:50.397Z,99.90
2019-02-14T02:00:16.902Z,99.90
2019-02-14T02:02:43.484Z,99.90
2019-02-14T02:05:09.936Z,99.90
2019-02-14T02:07:36.476Z,99.90
2019-02-14T02:10:07.177Z,99.90
2019-02-14T02:12:33.495Z,99.90
2019-02-14T02:14:59.929Z,99.90
2019-02-14T02:17:26.835Z,99.90
2019-02-14T02:19:53.097Z,99.90
2019-02-14T02:22:19.732Z,99.90
2019-02-14T02:24:46.122Z,99.90
2019-02-14T02:27:12.806Z,99.90
2019-02-14T02:29:39.195Z,99.90
2019-02-14T02:32:05.702Z,99.90
2019-02-14T02:34:32.089Z,99.90
2019-02-14T02:36:58.408Z,99.90
2019-02-14T02:39:24.843Z,99.90
2019-02-14T02:41:51.160Z,99.90
2019-02-14T02:44:17.430Z,99.90
2019-02-14T02:46:43.942Z,99.90
2019-02-14T02:49:10.371Z,99.90
2019-02-14T02:51:36.774Z,99.90
2019-02-14T02:54:03.398Z,99.90
2019-02-14T02:56:29.780Z,99.90
2019-02-14T02:58:56.101Z,99.90
2019-02-14T03:01:22.545Z,99.90
2019-02-14T03:03:48.941Z,99.90
2019-02-14T03:06:15.307Z,99.90
2019-02-14T03:08:41.699Z,99.90
2019-02-14T03:11:07.976Z,99.90
2019-02-14T03:13:34.652Z,99.90
2019-02-14T03:16:00.951Z,99.90
2019-02-14T03:18:27.617Z,99.90
2019-02-14T03:20:53.968Z,99.90
2019-02-14T03:23:20.282Z,99.90
2019-02-14T03:25:46.800Z,99.90
2019-02-14T03:28:13.393Z,99.90
2019-02-14T03:30:40.148Z,99.90
2019-02-14T03:33:06.440Z,99.90
2019-02-14T03:35:32.882Z,99.90
2019-02-14T03:37:59.286Z,99.90
2019-02-14T03:40:25.724Z,99.90
2019-02-14T03:42:53.953Z,99.90
2019-02-14T03:45:20.634Z,99.90
2019-02-14T03:47:46.917Z,99.90
2019-02-14T03:50:13.464Z,99.90
2019-02-14T03:52:39.865Z,99.90
2019-02-14T03:55:08.682Z,99.90
2019-02-14T03:57:35.080Z,99.90
2019-02-14T04:00:01.782Z,99.90
2019-02-14T04:02:28.291Z,99.90
2019-02-14T04:04:54.820Z,99.90
2019-02-14T04:07:21.147Z,99.90
2019-02-14T04:09:47.881Z,99.90
2019-02-14T04:12:14.195Z,99.90
2019-02-14T04:14:40.770Z,99.90
2019-02-14T04:17:07.123Z,99.90
2019-02-14T04:19:33.601Z,99.90
2019-02-14T04:22:00.010Z,99.90
2019-02-14T04:24:26.276Z,99.90
2019-02-14T04:26:52.697Z,99.90
2019-02-14T04:29:19.106Z,99.90
2019-02-14T04:31:45.437Z,99.90
2019-02-14T04:34:11.748Z,99.90
2019-02-14T04:36:38.200Z,99.90
2019-02-14T04:39:05.586Z,99.90
2019-02-14T04:41:31.916Z,99.90
2019-02-14T04:43:58.331Z,99.90
2019-02-14T04:46:24.914Z,99.90
2019-02-14T04:48:51.446Z,99.90
2019-02-14T04:51:17.891Z,99.90
2019-02-14T04:53:44.304Z,99.90
2019-02-14T04:56:10.840Z,99.90
2019-02-14T04:58:37.391Z,99.90
2019-02-14T05:01:04.628Z,99.90
2019-02-14T05:03:31.265Z,99.90
2019-02-14T05:05:57.562Z,99.90
2019-02-14T05:08:24.085Z,99.90
2019-02-14T05:10:50.531Z,99.90
2019-02-14T05:13:17.000Z,99.90
2019-02-14T05:15:43.268Z,99.90
2019-02-14T05:18:09.692Z,99.90
2019-02-14T05:20:36.080Z,99.90
2019-02-14T05:23:02.502Z,99.90
2019-02-14T05:25:28.792Z,99.90
2019-02-14T05:27:55.089Z,99.90
2019-02-14T05:30:21.591Z,99.90
2019-02-14T05:32:47.981Z,99.90
2019-02-14T05:35:14.300Z,99.90
2019-02-14T05:37:40.775Z,99.90
2019-02-14T05:40:09.614Z,99.90
2019-02-14T05:42:36.601Z,99.90
2019-02-14T05:45:09.716Z,99.90
2019-02-14T05:47:36.101Z,99.90
2019-02-14T05:50:06.299Z,99.90
2019-02-14T05:52:32.785Z,99.90
2019-02-14T05:54:59.064Z,99.90
2019-02-14T05:57:25.338Z,99.90
2019-02-14T05:59:51.747Z,99.90
2019-02-14T06:02:18.918Z,99.90
2019-02-14T06:04:45.248Z,99.90
2019-02-14T06:07:11.626Z,99.90
2019-02-14T06:09:38.092Z,99.90
2019-02-14T06:12:04.500Z,99.90
2019-02-14T06:14:30.981Z,99.90
2019-02-14T06:16:57.325Z,99.90
2019-02-14T06:19:23.745Z,99.90
2019-02-14T06:21:50.057Z,99.90
2019-02-14T06:24:16.526Z,99.90
2019-02-14T06:26:42.790Z,99.90
2019-02-14T06:29:09.116Z,99.90
2019-02-14T06:31:35.633Z,99.90
2019-02-14T06:34:02.057Z,99.90
2019-02-14T06:36:28.452Z,99.90
2019-02-14T06:38:54.980Z,99.90
2019-02-14T06:41:21.376Z,99.90
2019-02-14T06:43:47.938Z,99.90
2019-02-14T06:46:14.298Z,99.90
2019-02-14T06:48:40.815Z,99.90
2019-02-14T06:51:07.434Z,99.90
2019-02-14T06:53:33.854Z,99.90
2019-02-14T06:56:00.168Z,99.90
2019-02-14T06:58:26.478Z,99.90
2019-02-14T07:00:53.510Z,99.90
2019-02-14T07:03:19.827Z,99.90
2019-02-14T07:05:46.126Z,99.90
2019-02-14T07:08:12.472Z,99.90
2019-02-14T07:10:39.006Z,99.90
2019-02-14T07:13:05.511Z,99.90
2019-02-14T07:15:31.981Z,99.90
2019-02-14T07:17:58.309Z,99.90
2019-02-14T07:20:24.919Z,99.90
2019-02-14T07:22:51.241Z,99.90
2019-02-14T07:25:17.656Z,99.90
2019-02-14T07:27:44.071Z,99.90
2019-02-14T07:30:26.206Z,99.90
2019-02-14T07:32:52.627Z,99.90
2019-02-14T07:35:19.316Z,99.90
2019-02-14T07:37:45.996Z,99.90
2019-02-14T07:40:13.589Z,99.90
2019-02-14T07:42:40.289Z,99.90
2019-02-14T07:45:13.996Z,99.90
2019-02-14T07:47:40.417Z,99.90
2019-02-14T07:50:11.115Z,99.90
2019-02-14T07:52:37.643Z,99.90
2019-02-14T07:55:10.012Z,99.90
2019-02-14T07:57:36.696Z,99.90
2019-02-14T08:00:13.329Z,99.90
2019-02-14T08:02:39.907Z,99.90
2019-02-14T08:05:08.061Z,99.90
2019-02-14T08:07:36.183Z,99.90
2019-02-14T08:10:09.215Z,99.90
2019-02-14T08:12:35.499Z,99.90
2019-02-14T08:15:02.011Z,99.90
2019-02-14T08:17:28.434Z,99.90
2019-02-14T08:19:54.924Z,99.90
2019-02-14T08:22:21.196Z,99.90
2019-02-14T08:24:48.995Z,99.90
2019-02-14T08:27:15.422Z,99.90
2019-02-14T08:29:42.326Z,99.90
2019-02-14T08:32:08.795Z,99.90
2019-02-14T08:34:35.365Z,99.90
2019-02-14T08:37:01.657Z,99.90
2019-02-14T08:39:28.199Z,99.90
2019-02-14T08:41:54.709Z,99.90
2019-02-14T08:44:21.021Z,99.90
2019-02-14T08:46:47.531Z,99.90
2019-02-14T08:49:14.182Z,99.90
2019-02-14T08:51:40.837Z,99.90
2019-02-14T08:54:07.130Z,99.90
2019-02-14T08:56:33.567Z,99.90
2019-02-14T08:59:00.086Z,99.90
2019-02-14T09:01:26.485Z,99.90
2019-02-14T09:03:53.089Z,99.90
2019-02-14T09:06:19.600Z,99.90
2019-02-14T09:08:46.162Z,99.90
2019-02-14T09:11:12.653Z,99.90
2019-02-14T09:13:39.167Z,99.90
2019-02-14T09:16:05.631Z,99.90
2019-02-14T09:18:32.102Z,99.90
2019-02-14T09:20:58.718Z,99.90
2019-02-14T09:23:25.228Z,99.90
2019-02-14T09:25:51.712Z,99.90
2019-02-14T09:28:18.119Z,99.90
2019-02-14T09:30:44.542Z,99.90
2019-02-14T09:33:11.361Z,99.90
2019-02-14T09:35:37.921Z,99.90
2019-02-14T09:38:04.213Z,99.90
2019-02-14T09:40:30.837Z,99.90
2019-02-14T09:42:57.291Z,99.90
2019-02-14T09:45:23.599Z,99.90
2019-02-14T09:47:50.011Z,99.90
2019-02-14T09:50:16.600Z,99.90
2019-02-14T09:52:43.457Z,99.90
2019-02-14T09:55:13.772Z,99.90
2019-02-14T09:57:40.396Z,99.90
2019-02-14T10:00:12.445Z,99.90
2019-02-14T10:02:38.918Z,99.90
2019-02-14T10:05:07.521Z,99.90
2019-02-14T10:07:34.041Z,99.90
2019-02-14T10:10:00.553Z,99.90
2019-02-14T10:12:27.015Z,99.90
2019-02-14T10:14:53.530Z,99.90
2019-02-14T10:17:22.195Z,99.90
2019-02-14T10:19:48.316Z,99.90
2019-02-14T10:22:14.871Z,99.90
2019-02-14T10:24:41.297Z,99.90
2019-02-14T10:27:07.666Z,99.90
2019-02-14T10:29:34.332Z,99.90
2019-02-14T10:32:01.027Z,99.90
2019-02-14T10:34:27.548Z,99.90
2019-02-14T10:36:54.009Z,99.90
2019-02-14T10:39:20.600Z,99.90
2019-02-14T10:41:47.028Z,99.90
2019-02-14T10:44:13.375Z,99.90
2019-02-14T10:46:40.003Z,99.90
2019-02-14T10:49:06.540Z,99.90
2019-02-14T10:51:32.850Z,99.90
2019-02-14T10:53:59.536Z,99.90
2019-02-14T10:56:26.030Z,99.90
2019-02-14T10:58:52.352Z,98.10
2019-02-14T11:01:19.410Z,96.70
2019-02-14T11:03:46.564Z,91.10
2019-02-14T11:06:13.117Z,79.90
2019-02-14T11:08:39.583Z,61.60
2019-02-14T11:11:06.362Z,58.40
2019-02-14T11:13:32.995Z,56.90
2019-02-14T11:15:59.510Z,51.90
2019-02-14T11:18:26.109Z,50.20
2019-02-14T11:20:52.670Z,50.70
2019-02-14T11:23:19.257Z,50.40
2019-02-14T11:25:45.902Z,50.30
2019-02-14T11:28:12.242Z,50.20
2019-02-14T11:30:38.678Z,50.70
2019-02-14T11:33:05.072Z,53.30
2019-02-14T11:35:31.759Z,53.30
2019-02-14T11:37:58.330Z,53.00
2019-02-14T11:40:24.997Z,50.20
2019-02-14T11:42:51.478Z,50.70
2019-02-14T11:45:20.245Z,45.90
2019-02-14T11:47:46.672Z,44.80
2019-02-14T11:50:13.202Z,46.20
2019-02-14T11:52:39.625Z,48.20
2019-02-14T11:55:08.696Z,46.60
2019-02-14T11:57:35.285Z,45.00
2019-02-14T12:00:06.183Z,43.70
2019-02-14T12:02:32.626Z,44.40
2019-02-14T12:04:59.291Z,43.20
2019-02-14T12:07:25.716Z,42.70
2019-02-14T12:09:52.156Z,42.60
2019-02-14T12:12:18.622Z,42.50
2019-02-14T12:14:45.008Z,42.30
2019-02-14T12:17:11.774Z,41.50
2019-02-14T12:19:38.066Z,40.10
2019-02-14T12:22:04.602Z,40.10
2019-02-14T12:24:31.223Z,40.10
2019-02-14T12:26:57.608Z,39.50
2019-02-14T12:29:24.270Z,38.20
2019-02-14T12:31:50.965Z,37.90
2019-02-14T12:34:17.625Z,37.20
2019-02-14T12:36:44.265Z,40.20
2019-02-14T12:39:11.694Z,38.70
2019-02-14T12:41:38.353Z,38.90
2019-02-14T12:44:04.777Z,37.70
2019-02-14T12:46:31.408Z,35.80
2019-02-14T12:48:57.851Z,35.60
2019-02-14T12:51:24.488Z,36.80
2019-02-14T12:53:51.061Z,36.50
2019-02-14T12:56:17.556Z,34.90
2019-02-14T12:58:44.120Z,34.10
2019-02-14T13:01:10.626Z,35.60
2019-02-14T13:03:37.281Z,34.10
2019-02-14T13:06:03.906Z,34.80
2019-02-14T13:08:30.465Z,34.30
2019-02-14T13:10:57.216Z,35.10
2019-02-14T13:13:23.815Z,35.30
2019-02-14T13:15:50.443Z,34.60
2019-02-14T13:18:16.976Z,34.30
2019-02-14T13:20:43.601Z,34.20
2019-02-14T13:23:10.190Z,33.30
2019-02-14T13:25:36.738Z,32.40
2019-02-14T13:28:03.494Z,32.50
2019-02-14T13:30:30.195Z,31.60
2019-02-14T13:32:56.817Z,31.70
2019-02-14T13:35:23.713Z,32.40
2019-02-14T13:37:50.498Z,32.70
2019-02-14T13:40:16.933Z,32.30
2019-02-14T13:42:43.531Z,32.70
2019-02-14T13:45:16.530Z,31.80
2019-02-14T13:47:43.065Z,32.20
2019-02-14T13:50:11.400Z,31.90
2019-02-14T13:52:38.020Z,32.10
2019-02-14T13:55:09.893Z,32.50
2019-02-14T13:57:36.421Z,32.40
2019-02-14T14:00:11.225Z,33.20
2019-02-14T14:02:37.991Z,33.90
2019-02-14T14:05:04.835Z,34.20
2019-02-14T14:07:40.180Z,34.00
2019-02-14T14:09:59.762Z,34.10
2019-02-14T14:12:26.199Z,34.60
2019-02-14T14:14:52.573Z,34.10
2019-02-14T14:17:19.303Z,34.30
2019-02-14T14:19:45.952Z,32.60
2019-02-14T14:22:12.450Z,32.00
2019-02-14T14:24:39.126Z,32.00
2019-02-14T14:27:05.770Z,31.50
2019-02-14T14:29:32.327Z,32.10
2019-02-14T14:31:58.876Z,31.10
2019-02-14T14:34:25.194Z,31.10
2019-02-14T14:36:51.586Z,31.70
2019-02-14T14:39:18.089Z,30.90
2019-02-14T14:41:44.741Z,30.40
2019-02-14T14:44:13.135Z,30.90
2019-02-14T14:46:40.448Z,31.10
2019-02-14T14:49:07.053Z,32.60
2019-02-14T14:51:33.573Z,32.40
2019-02-14T14:54:00.139Z,32.80
2019-02-14T14:56:26.547Z,32.90
2019-02-14T14:58:53.083Z,32.90
2019-02-14T15:01:19.802Z,32.80
2019-02-14T15:03:46.505Z,33.10
2019-02-14T15:06:13.214Z,33.50
2019-02-14T15:08:39.736Z,33.70
2019-02-14T15:11:06.289Z,34.30
2019-02-14T15:13:32.728Z,34.90
2019-02-14T15:15:59.377Z,35.20
2019-02-14T15:18:25.803Z,35.00
2019-02-14T15:20:52.285Z,36.00
2019-02-14T15:23:18.737Z,36.80
2019-02-14T15:25:45.398Z,38.30
2019-02-14T15:28:11.867Z,39.00
2019-02-14T15:30:38.381Z,39.50
2019-02-14T15:33:05.065Z,41.00
2019-02-14T15:35:31.552Z,43.20
2019-02-14T15:37:58.230Z,47.00
2019-02-14T15:40:24.857Z,48.20
2019-02-14T15:42:51.593Z,49.50
2019-02-14T15:45:18.375Z,49.00
2019-02-14T15:47:44.869Z,48.90
2019-02-14T15:50:11.524Z,48.40
2019-02-14T15:52:38.234Z,48.10
2019-02-14T15:55:06.528Z,47.70
2019-02-14T15:57:32.995Z,47.80
2019-02-14T15:59:59.679Z,47.80
2019-02-14T16:02:26.037Z,48.20
2019-02-14T16:04:53.345Z,48.70
2019-02-14T16:07:21.189Z,49.70
2019-02-14T16:09:48.840Z,50.80
2019-02-14T16:12:17.325Z,52.60
2019-02-14T16:14:44.839Z,54.50
2019-02-14T16:17:13.655Z,57.50
2019-02-14T16:19:39.998Z,62.10
2019-02-14T16:22:06.582Z,63.60
2019-02-14T16:24:33.296Z,71.10
2019-02-14T16:27:01.241Z,86.10
2019-02-14T16:29:29.220Z,92.30
2019-02-14T16:31:55.807Z,99.00
2019-02-14T16:34:22.423Z,99.90
2019-02-14T16:36:49.069Z,99.90
2019-02-14T16:39:15.688Z,99.90
2019-02-14T16:41:42.136Z,99.90
2019-02-14T16:44:08.750Z,99.90
2019-02-14T16:46:35.391Z,99.90
2019-02-14T16:49:02.059Z,99.90
2019-02-14T16:51:28.649Z,99.90
2019-02-14T16:53:55.390Z,99.90
2019-02-14T16:56:22.099Z,99.90
2019-02-14T16:58:48.726Z,99.90
2019-02-14T17:01:15.304Z,99.90
2019-02-14T17:03:41.852Z,99.90
2019-02-14T17:06:08.532Z,99.90
2019-02-14T17:08:35.082Z,99.90
2019-02-14T17:11:01.683Z,99.90
2019-02-14T17:13:28.439Z,99.90
2019-02-14T17:15:55.213Z,99.90
2019-02-14T17:18:21.807Z,99.90
2019-02-14T17:20:48.443Z,99.90
2019-02-14T17:23:14.945Z,99.90
2019-02-14T17:25:41.524Z,99.90
2019-02-14T17:28:08.031Z,99.90
2019-02-14T17:30:34.750Z,99.90
2019-02-14T17:33:01.366Z,99.90
2019-02-14T17:35:28.181Z,99.90
2019-02-14T17:37:54.980Z,99.90
2019-02-14T17:40:21.653Z,99.90
2019-02-14T17:42:48.209Z,99.90
2019-02-14T17:45:14.926Z,99.90
2019-02-14T17:47:41.529Z,99.90
2019-02-14T17:50:08.246Z,99.90
2019-02-14T17:52:34.922Z,99.90
2019-02-14T17:55:02.077Z,99.90
2019-02-14T17:57:28.658Z,99.90
2019-02-14T17:59:55.317Z,99.90
2019-02-14T18:02:21.976Z,99.90
2019-02-14T18:04:48.389Z,99.90
2019-02-14T18:07:14.800Z,99.90
2019-02-14T18:09:41.723Z,99.90
2019-02-14T18:12:08.411Z,99.90
2019-02-14T18:14:35.342Z,99.90
2019-02-14T18:17:01.782Z,99.90
2019-02-14T18:19:28.208Z,99.90
2019-02-14T18:21:54.982Z,99.90
2019-02-14T18:24:21.517Z,99.90
2019-02-14T18:26:47.915Z,99.90
2019-02-14T18:29:14.473Z,99.90
2019-02-14T18:31:41.199Z,99.90
2019-02-14T18:34:08.021Z,99.90
2019-02-14T18:36:34.595Z,99.90
2019-02-14T18:39:01.740Z,99.90
2019-02-14T18:41:28.398Z,99.90
2019-02-14T18:43:55.079Z,99.90
2019-02-14T18:46:21.830Z,99.90
2019-02-14T18:48:48.469Z,99.90
2019-02-14T18:51:15.260Z,99.90
2019-02-14T18:53:41.854Z,99.90
2019-02-14T18:56:08.720Z,99.90
2019-02-14T18:58:35.054Z,99.90
2019-02-14T19:01:01.991Z,99.90
2019-02-14T19:03:28.752Z,99.90
2019-02-14T19:05:55.534Z,99.90
2019-02-14T19:08:22.265Z,99.90
2019-02-14T19:10:49.012Z,99.90
2019-02-14T19:13:15.678Z,99.90
2019-02-14T19:15:42.260Z,99.90
2019-02-14T19:18:08.917Z,99.90
2019-02-14T19:20:35.765Z,99.90
2019-02-14T19:23:02.575Z,99.90
2019-02-14T19:25:30.217Z,99.90
2019-02-14T19:27:56.931Z,99.90
2019-02-14T19:30:23.583Z,99.90
2019-02-14T19:32:50.425Z,99.90
2019-02-14T19:35:22.757Z,99.90
2019-02-14T19:37:45.652Z,99.90
2019-02-14T19:40:12.448Z,99.90
2019-02-14T19:42:39.278Z,99.90
2019-02-14T19:45:08.681Z,99.90
2019-02-14T19:47:35.373Z,99.90
2019-02-14T19:50:03.277Z,99.90
2019-02-14T19:52:29.999Z,99.90
2019-02-14T19:54:56.904Z,99.90
2019-02-14T19:57:23.924Z,99.90
2019-02-14T19:59:50.519Z,99.90
2019-02-14T20:02:17.313Z,99.90
2019-02-14T20:04:44.252Z,99.90
2019-02-14T20:07:11.109Z,99.90
2019-02-14T20:09:38.118Z,99.90
2019-02-14T20:12:05.167Z,99.90
2019-02-14T20:14:31.818Z,99.90
2019-02-14T20:16:58.524Z,99.90
2019-02-14T20:19:25.448Z,99.90
2019-02-14T20:21:52.359Z,99.90
2019-02-14T20:24:19.262Z,99.90
2019-02-14T20:26:45.925Z,99.90
2019-02-14T20:29:12.687Z,99.90
2019-02-14T20:31:39.670Z,99.90
2019-02-14T20:34:06.466Z,99.90
2019-02-14T20:36:33.257Z,99.90
2019-02-14T20:39:00.244Z,99.90
2019-02-14T20:41:27.158Z,99.90
2019-02-14T20:43:53.671Z,99.90
2019-02-14T20:46:20.303Z,99.90
2019-02-14T20:48:47.205Z,99.90
2019-02-14T20:51:13.833Z,99.90
2019-02-14T20:53:40.628Z,99.90
2019-02-14T20:56:07.438Z,99.90
2019-02-14T20:58:34.190Z,99.90
2019-02-14T21:01:01.697Z,99.90
2019-02-14T21:03:28.344Z,99.90
2019-02-14T21:05:55.032Z,99.90
2019-02-14T21:08:21.817Z,99.90
2019-02-14T21:10:48.674Z,99.90
2019-02-14T21:13:15.208Z,99.90
2019-02-14T21:15:41.950Z,99.90
2019-02-14T21:18:08.641Z,99.90
2019-02-14T21:20:35.311Z,99.90
2019-02-14T21:23:02.087Z,99.90
2019-02-14T21:25:29.244Z,99.90
2019-02-14T21:27:55.772Z,99.90
2019-02-14T21:30:22.437Z,99.90
2019-02-14T21:32:49.053Z,99.90
2019-02-14T21:35:15.931Z,99.90
2019-02-14T21:37:42.921Z,99.90
2019-02-14T21:40:14.626Z,99.90
2019-02-14T21:42:41.433Z,99.90
2019-02-14T21:45:13.092Z,99.90
2019-02-14T21:47:39.754Z,99.90
2019-02-14T21:50:12.821Z,99.90
2019-02-14T21:52:39.595Z,99.90
2019-02-14T21:55:11.506Z,99.90
2019-02-14T21:57:38.387Z,99.90
2019-02-14T22:00:18.611Z,99.90
2019-02-14T22:02:45.418Z,99.90
2019-02-14T22:05:12.267Z,99.90
2019-02-14T22:07:38.994Z,99.90
2019-02-14T22:10:09.331Z,99.90
2019-02-14T22:12:40.491Z,99.90
2019-02-14T22:15:12.174Z,99.90
2019-02-14T22:17:38.801Z,99.90
2019-02-14T22:20:08.037Z,99.90
2019-02-14T22:22:34.671Z,99.90
2019-02-14T22:25:01.144Z,99.90
2019-02-14T22:27:27.745Z,99.90
2019-02-14T22:29:54.380Z,99.90
2019-02-14T22:32:21.106Z,99.90
2019-02-14T22:34:47.794Z,99.90
2019-02-14T22:37:14.544Z,99.90
2019-02-14T22:39:41.098Z,99.90
2019-02-14T22:42:07.810Z,99.90
2019-02-14T22:44:34.429Z,99.90
2019-02-14T22:47:01.065Z,99.90
2019-02-14T22:49:27.688Z,99.90
2019-02-14T22:51:54.230Z,99.90
2019-02-14T22:54:20.803Z,99.90
2019-02-14T22:56:47.400Z,99.90
2019-02-14T22:59:13.908Z,99.90
2019-02-14T23:01:40.979Z,99.90
2019-02-14T23:04:07.647Z,99.90
2019-02-14T23:06:34.027Z,99.90
2019-02-14T23:09:00.478Z,99.90
2019-02-14T23:11:27.020Z,99.90
2019-02-14T23:13:53.805Z,99.90
2019-02-14T23:16:20.321Z,99.90
2019-02-14T23:18:46.736Z,99.90
2019-02-14T23:21:13.357Z,99.90
2019-02-14T23:23:39.858Z,99.90
2019-02-14T23:26:06.943Z,99.90
2019-02-14T23:28:33.441Z,99.90
2019-02-14T23:30:59.864Z,99.90
2019-02-14T23:33:26.595Z,99.90
2019-02-14T23:35:53.245Z,99.90
2019-02-14T23:38:19.643Z,99.90
2019-02-14T23:40:46.048Z,99.90
2019-02-14T23:43:12.495Z,99.90
2019-02-14T23:45:39.058Z,99.90
2019-02-14T23:48:05.553Z,99.90
2019-02-14T23:50:32.205Z,99.90
2019-02-14T23:52:58.550Z,99.90
2019-02-14T23:55:25.084Z,99.90
2019-02-14T23:57:51.490Z,99.90
